createdAt,value
2023-04-04T00:01:32.223Z,100.00
2023-04-04T00:03:59.999Z,100.00
2023-04-04T00:06:28.094Z,100.00
2023-04-04T00:08:55.616Z,100.00
2023-04-04T00:11:23.191Z,100.00
2023-04-04T00:13:50.709Z,100.00
2023-04-04T00:16:18.227Z,100.00
2023-04-04T00:18:45.802Z,100.00
2023-04-04T00:21:13.344Z,100.00
2023-04-04T00:23:40.894Z,100.00
2023-04-04T00:26:08.450Z,100.00
2023-04-04T00:28:36.907Z,100.00
2023-04-04T00:31:04.492Z,100.00
2023-04-04T00:33:32.523Z,100.00
2023-04-04T00:36:00.020Z,100.00
2023-04-04T00:38:29.692Z,100.00
2023-04-04T00:40:58.253Z,100.00
2023-04-04T00:43:27.228Z,100.00
2023-04-04T00:45:54.808Z,100.00
2023-04-04T00:48:24.444Z,100.00
2023-04-04T00:50:52.692Z,100.00
2023-04-04T00:53:20.239Z,100.00
2023-04-04T00:55:47.741Z,100.00
2023-04-04T00:58:15.552Z,100.00
2023-04-04T01:00:43.155Z,100.00
2023-04-04T01:03:12.873Z,100.00
2023-04-04T01:05:41.957Z,100.00
2023-04-04T01:08:09.559Z,100.00
2023-04-04T01:10:37.955Z,100.00
2023-04-04T01:13:07.278Z,100.00
2023-04-04T01:15:34.729Z,100.00
2023-04-04T01:18:05.886Z,100.00
2023-04-04T01:20:40.608Z,100.00
2023-04-04T01:23:10.579Z,100.00
2023-04-04T01:25:38.873Z,100.00
2023-04-04T01:28:11.054Z,100.00
2023-04-04T01:30:42.420Z,100.00
2023-04-04T01:33:21.259Z,100.00
2023-04-04T01:36:02.726Z,100.00
2023-04-04T01:39:03.767Z,100.00
2023-04-04T01:41:35.417Z,100.00
2023-04-04T01:44:04.705Z,100.00
2023-04-04T01:46:33.089Z,100.00
2023-04-04T01:49:00.715Z,100.00
2023-04-04T01:51:32.699Z,100.00
2023-04-04T01:54:00.565Z,100.00
2023-04-04T01:56:28.551Z,100.00
2023-04-04T01:58:56.292Z,100.00
2023-04-04T02:01:24.151Z,100.00
2023-04-04T02:03:52.903Z,100.00
2023-04-04T02:06:20.496Z,100.00
2023-04-04T02:08:48.228Z,100.00
2023-04-04T02:11:16.246Z,100.00
2023-04-04T02:13:44.515Z,100.00
2023-04-04T02:16:15.879Z,100.00
2023-04-04T02:18:43.495Z,100.00
2023-04-04T02:21:11.039Z,100.00
2023-04-04T02:23:39.221Z,100.00
2023-04-04T02:26:06.767Z,100.00
2023-04-04T02:28:34.842Z,100.00
2023-04-04T02:31:03.708Z,100.00
2023-04-04T02:33:31.914Z,100.00
2023-04-04T02:36:02.946Z,100.00
2023-04-04T02:38:30.890Z,100.00
2023-04-04T02:40:59.698Z,100.00
2023-04-04T02:43:27.220Z,100.00
2023-04-04T02:45:54.837Z,100.00
2023-04-04T02:48:26.165Z,100.00
2023-04-04T02:50:57.149Z,100.00
2023-04-04T02:53:24.707Z,100.00
2023-04-04T02:55:55.585Z,100.00
2023-04-04T02:58:23.032Z,100.00
2023-04-04T03:00:57.235Z,100.00
2023-04-04T03:03:29.459Z,100.00
2023-04-04T03:05:58.340Z,100.00
2023-04-04T03:08:26.266Z,100.00
2023-04-04T03:11:00.359Z,100.00
2023-04-04T03:13:28.189Z,100.00
2023-04-04T03:16:06.384Z,100.00
2023-04-04T03:18:48.352Z,100.00
2023-04-04T03:21:21.287Z,100.00
2023-04-04T03:23:49.009Z,100.00
2023-04-04T03:26:16.451Z,100.00
2023-04-04T03:28:44.219Z,100.00
2023-04-04T03:31:13.088Z,100.00
2023-04-04T03:33:43.068Z,100.00
2023-04-04T03:36:14.904Z,100.00
2023-04-04T03:38:42.471Z,100.00
2023-04-04T03:41:14.121Z,100.00
2023-04-04T03:43:42.292Z,100.00
2023-04-04T03:46:09.920Z,100.00
2023-04-04T03:48:37.514Z,100.00
2023-04-04T03:51:08.167Z,100.00
2023-04-04T03:53:36.640Z,100.00
2023-04-04T03:56:04.635Z,100.00
2023-04-04T03:58:32.148Z,100.00
2023-04-04T04:00:59.669Z,100.00
2023-04-04T04:03:30.739Z,100.00
2023-04-04T04:05:59.184Z,100.00
2023-04-04T04:08:27.936Z,100.00
2023-04-04T04:10:55.726Z,100.00
2023-04-04T04:13:23.353Z,100.00
2023-04-04T04:15:51.533Z,100.00
2023-04-04T04:18:22.372Z,100.00
2023-04-04T04:20:51.899Z,100.00
2023-04-04T04:23:21.959Z,100.00
2023-04-04T04:25:51.248Z,100.00
2023-04-04T04:28:21.501Z,100.00
2023-04-04T04:30:49.389Z,100.00
2023-04-04T04:33:20.620Z,100.00
2023-04-04T04:36:05.788Z,100.00
2023-04-04T04:38:44.674Z,100.00
2023-04-04T04:41:13.199Z,100.00
2023-04-04T04:43:45.386Z,100.00
2023-04-04T04:46:13.275Z,100.00
2023-04-04T04:48:40.908Z,100.00
2023-04-04T04:51:10.542Z,100.00
2023-04-04T04:53:43.384Z,100.00
2023-04-04T04:56:11.691Z,100.00
2023-04-04T04:58:42.466Z,100.00
2023-04-04T05:01:11.938Z,100.00
2023-04-04T05:03:40.948Z,100.00
2023-04-04T05:06:13.088Z,100.00
2023-04-04T05:08:40.883Z,100.00
2023-04-04T05:11:43.338Z,100.00
2023-04-04T05:14:12.681Z,100.00
2023-04-04T05:16:49.080Z,100.00
2023-04-04T05:19:17.966Z,100.00
2023-04-04T05:21:49.873Z,100.00
2023-04-04T05:24:28.674Z,100.00
2023-04-04T05:27:01.408Z,100.00
2023-04-04T05:29:34.491Z,100.00
2023-04-04T05:32:03.732Z,100.00
2023-04-04T05:34:31.799Z,100.00
2023-04-04T05:37:00.374Z,100.00
2023-04-04T05:39:28.828Z,100.00
2023-04-04T05:42:07.108Z,100.00
2023-04-04T05:44:38.897Z,100.00
2023-04-04T05:47:07.893Z,100.00
2023-04-04T05:49:36.908Z,100.00
2023-04-04T05:52:04.604Z,100.00
2023-04-04T05:54:32.350Z,100.00
2023-04-04T05:57:03.257Z,100.00
2023-04-04T05:59:46.033Z,100.00
2023-04-04T06:02:17.432Z,100.00
2023-04-04T06:04:50.673Z,100.00
2023-04-04T06:07:24.358Z,100.00
2023-04-04T06:09:51.860Z,100.00
2023-04-04T06:12:23.072Z,100.00
2023-04-04T06:14:51.114Z,100.00
2023-04-04T06:17:21.681Z,100.00
2023-04-04T06:19:49.943Z,100.00
2023-04-04T06:22:17.946Z,100.00
2023-04-04T06:24:49.484Z,100.00
2023-04-04T06:27:18.568Z,100.00
2023-04-04T06:29:47.918Z,100.00
2023-04-04T06:32:21.736Z,100.00
2023-04-04T06:35:10.974Z,100.00
2023-04-04T06:37:45.394Z,100.00
2023-04-04T06:40:17.502Z,100.00
2023-04-04T06:42:54.006Z,100.00
2023-04-04T06:45:28.483Z,100.00
2023-04-04T06:47:57.114Z,100.00
2023-04-04T06:50:24.643Z,100.00
2023-04-04T06:52:52.853Z,100.00
2023-04-04T06:55:20.600Z,100.00
2023-04-04T06:57:48.160Z,100.00
2023-04-04T07:00:16.749Z,100.00
2023-04-04T07:02:45.787Z,100.00
2023-04-04T07:05:15.454Z,100.00
2023-04-04T07:07:42.888Z,100.00
2023-04-04T07:10:10.683Z,100.00
2023-04-04T07:12:38.129Z,100.00
2023-04-04T07:15:06.863Z,100.00
2023-04-04T07:17:39.175Z,100.00
2023-04-04T07:20:08.534Z,100.00
2023-04-04T07:22:40.571Z,100.00
2023-04-04T07:25:09.750Z,100.00
2023-04-04T07:27:37.681Z,100.00
2023-04-04T07:30:06.701Z,100.00
2023-04-04T07:32:34.302Z,100.00
2023-04-04T07:35:02.118Z,100.00
2023-04-04T07:37:29.599Z,100.00
2023-04-04T07:39:57.089Z,100.00
2023-04-04T07:42:25.198Z,100.00
2023-04-04T07:44:53.305Z,100.00
2023-04-04T07:47:21.446Z,100.00
2023-04-04T07:49:49.059Z,100.00
2023-04-04T07:52:16.492Z,100.00
2023-04-04T07:54:44.690Z,100.00
2023-04-04T07:57:12.157Z,100.00
2023-04-04T07:59:39.610Z,100.00
2023-04-04T08:02:07.389Z,100.00
2023-04-04T08:04:34.918Z,100.00
2023-04-04T08:07:02.404Z,100.00
2023-04-04T08:09:34.327Z,98.94
2023-04-04T08:12:02.294Z,100.00
2023-04-04T08:14:30.433Z,100.00
2023-04-04T08:16:57.880Z,100.00
2023-04-04T08:19:25.400Z,100.00
2023-04-04T08:21:52.887Z,99.38
2023-04-04T08:24:22.417Z,99.81
2023-04-04T08:27:01.754Z,100.00
2023-04-04T08:29:33.028Z,100.00
2023-04-04T08:32:04.082Z,99.58
2023-04-04T08:34:32.117Z,98.61
2023-04-04T08:37:00.070Z,99.59
2023-04-04T08:39:27.704Z,97.18
2023-04-04T08:42:05.532Z,96.42
2023-04-04T08:44:35.634Z,96.89
2023-04-04T08:47:09.478Z,93.31
2023-04-04T08:49:41.467Z,91.64
2023-04-04T08:52:13.538Z,93.92
2023-04-04T08:54:41.365Z,96.04
2023-04-04T08:57:08.824Z,93.27
2023-04-04T08:59:36.787Z,94.00
2023-04-04T09:02:10.893Z,93.32
2023-04-04T09:04:40.918Z,93.48
2023-04-04T09:07:11.169Z,92.96
2023-04-04T09:09:38.952Z,94.16
2023-04-04T09:12:08.397Z,92.61
2023-04-04T09:14:40.278Z,91.30
2023-04-04T09:17:10.472Z,95.69
2023-04-04T09:19:38.739Z,95.80
2023-04-04T09:22:10.538Z,93.65
2023-04-04T09:24:44.542Z,95.07
2023-04-04T09:27:13.106Z,93.05
2023-04-04T09:29:44.472Z,93.33
2023-04-04T09:32:16.580Z,88.75
2023-04-04T09:34:45.354Z,90.27
2023-04-04T09:37:16.592Z,90.03
2023-04-04T09:39:44.429Z,94.54
2023-04-04T09:42:12.650Z,87.71
2023-04-04T09:44:40.206Z,86.50
2023-04-04T09:50:02.157Z,86.86
2023-04-04T09:52:36.205Z,88.03
2023-04-04T09:55:06.693Z,89.28
2023-04-04T09:57:37.931Z,88.49
2023-04-04T10:00:09.357Z,85.61
2023-04-04T10:02:48.741Z,86.29
2023-04-04T10:05:18.071Z,85.46
2023-04-04T10:07:47.356Z,86.23
2023-04-04T10:10:15.767Z,85.65
2023-04-04T10:12:47.838Z,85.36
2023-04-04T10:15:17.574Z,80.09
2023-04-04T10:17:47.476Z,82.10
2023-04-04T10:20:16.005Z,81.61
2023-04-04T10:22:45.228Z,82.87
2023-04-04T10:25:13.115Z,80.17
2023-04-04T10:27:40.624Z,79.83
2023-04-04T10:30:09.818Z,74.31
2023-04-04T10:32:45.222Z,77.09
2023-04-04T10:35:13.684Z,74.40
2023-04-04T10:37:58.823Z,76.56
2023-04-04T10:40:34.726Z,80.53
2023-04-04T10:43:06.820Z,76.11
2023-04-04T10:45:38.884Z,72.95
2023-04-04T10:48:10.389Z,76.98
2023-04-04T10:50:39.386Z,76.45
2023-04-04T10:53:08.417Z,74.53
2023-04-04T10:55:39.017Z,70.83
2023-04-04T10:58:08.423Z,74.99
2023-04-04T11:00:55.137Z,71.76
2023-04-04T11:03:23.023Z,69.63
2023-04-04T11:06:00.497Z,68.65
2023-04-04T11:08:30.533Z,66.05
2023-04-04T11:10:58.092Z,67.91
2023-04-04T11:13:35.869Z,73.97
2023-04-04T11:16:09.908Z,73.26
2023-04-04T11:18:43.048Z,73.43
2023-04-04T11:21:18.565Z,75.16
2023-04-04T11:23:49.124Z,75.69
2023-04-04T11:26:28.810Z,76.98
2023-04-04T11:29:00.807Z,77.06
2023-04-04T11:31:55.525Z,73.55
2023-04-04T11:34:34.188Z,75.29
2023-04-04T11:37:18.089Z,75.51
2023-04-04T11:39:59.099Z,76.32
2023-04-04T11:42:35.059Z,74.53
2023-04-04T11:45:07.856Z,75.95
2023-04-04T11:47:36.397Z,73.67
2023-04-04T11:50:10.912Z,71.90
2023-04-04T11:52:38.454Z,60.05
2023-04-04T11:55:20.045Z,56.64
2023-04-04T11:57:49.264Z,55.90
2023-04-04T12:00:35.996Z,57.42
2023-04-04T12:03:11.536Z,57.57
2023-04-04T12:05:43.394Z,57.89
2023-04-04T12:08:12.842Z,56.34
2023-04-04T12:10:41.859Z,57.71
2023-04-04T12:13:10.753Z,56.94
2023-04-04T12:15:38.787Z,58.17
2023-04-04T12:18:11.360Z,55.44
2023-04-04T12:20:41.639Z,56.50
2023-04-04T12:23:10.541Z,57.21
2023-04-04T12:25:40.388Z,60.88
2023-04-04T12:28:08.777Z,61.87
2023-04-04T12:30:36.787Z,65.66
2023-04-04T12:33:05.519Z,67.78
2023-04-04T12:35:33.254Z,67.14
2023-04-04T12:38:10.824Z,67.10
2023-04-04T12:40:40.333Z,65.77
2023-04-04T12:43:09.477Z,66.80
2023-04-04T12:45:41.382Z,64.57
2023-04-04T12:48:18.092Z,65.27
2023-04-04T12:51:00.679Z,68.84
2023-04-04T12:53:32.682Z,66.38
2023-04-04T12:56:05.326Z,69.37
2023-04-04T12:58:35.949Z,70.93
2023-04-04T13:01:04.972Z,68.58
2023-04-04T13:03:35.201Z,72.32
2023-04-04T13:06:06.032Z,71.81
2023-04-04T13:08:34.166Z,74.25
2023-04-04T13:11:05.568Z,74.01
2023-04-04T13:13:43.648Z,75.66
2023-04-04T13:16:33.465Z,74.22
2023-04-04T13:19:01.460Z,72.43
2023-04-04T13:21:29.560Z,77.35
2023-04-04T13:24:03.993Z,78.05
2023-04-04T13:26:32.560Z,75.27
2023-04-04T13:29:03.960Z,81.32
2023-04-04T13:31:32.356Z,79.29
2023-04-04T13:34:00.609Z,80.09
2023-04-04T13:36:28.618Z,83.35
2023-04-04T13:38:56.059Z,90.13
2023-04-04T13:41:23.644Z,93.54
2023-04-04T13:43:52.926Z,92.39
2023-04-04T13:46:21.014Z,95.06
2023-04-04T13:48:48.601Z,94.22
2023-04-04T13:51:23.380Z,93.46
2023-04-04T13:53:51.313Z,97.72
2023-04-04T13:56:19.304Z,100.00
2023-04-04T13:58:50.926Z,100.00
2023-04-04T14:01:18.697Z,100.00
2023-04-04T14:03:47.379Z,100.00
2023-04-04T14:06:14.966Z,100.00
2023-04-04T14:08:42.532Z,100.00
2023-04-04T14:11:10.030Z,100.00
2023-04-04T14:13:37.749Z,100.00
2023-04-04T14:16:06.779Z,100.00
2023-04-04T14:18:37.249Z,100.00
2023-04-04T14:21:06.407Z,100.00
2023-04-04T14:23:33.926Z,100.00
2023-04-04T14:26:01.468Z,100.00
2023-04-04T14:28:29.316Z,100.00
2023-04-04T14:30:56.835Z,100.00
2023-04-04T14:33:24.409Z,100.00
2023-04-04T14:35:51.906Z,100.00
2023-04-04T14:38:20.150Z,100.00
2023-04-04T14:40:49.068Z,100.00
2023-04-04T14:43:20.473Z,100.00
2023-04-04T14:45:48.011Z,100.00
2023-04-04T14:48:16.889Z,100.00
2023-04-04T14:50:45.959Z,100.00
2023-04-04T14:53:13.740Z,100.00
2023-04-04T14:55:42.754Z,100.00
2023-04-04T14:58:11.386Z,100.00
2023-04-04T15:00:39.587Z,100.00
2023-04-04T15:03:08.471Z,100.00
2023-04-04T15:05:36.634Z,100.00
2023-04-04T15:08:04.249Z,100.00
2023-04-04T15:10:31.715Z,100.00
2023-04-04T15:12:59.279Z,100.00
2023-04-04T15:15:29.009Z,100.00
2023-04-04T15:17:56.585Z,100.00
2023-04-04T15:20:24.005Z,100.00
2023-04-04T15:22:51.511Z,100.00
2023-04-04T15:25:18.995Z,100.00
2023-04-04T15:27:46.654Z,100.00
2023-04-04T15:30:14.960Z,100.00
2023-04-04T15:32:42.537Z,100.00
2023-04-04T15:35:19.297Z,100.00
2023-04-04T15:37:49.781Z,100.00
2023-04-04T15:40:18.683Z,100.00
2023-04-04T15:42:47.653Z,100.00
2023-04-04T15:45:16.648Z,100.00
2023-04-04T15:47:45.256Z,100.00
2023-04-04T15:50:13.375Z,100.00
2023-04-04T15:52:41.842Z,100.00
2023-04-04T15:55:17.176Z,100.00
2023-04-04T15:57:45.689Z,100.00
2023-04-04T16:00:17.183Z,100.00
2023-04-04T16:02:46.717Z,100.00
2023-04-04T16:05:14.409Z,100.00
2023-04-04T16:07:44.578Z,100.00
2023-04-04T16:10:12.183Z,100.00
2023-04-04T16:12:42.689Z,100.00
2023-04-04T16:15:14.730Z,100.00
2023-04-04T16:17:42.790Z,100.00
2023-04-04T16:20:11.409Z,100.00
2023-04-04T16:22:39.041Z,100.00
2023-04-04T16:25:09.020Z,100.00
2023-04-04T16:27:36.966Z,100.00
2023-04-04T16:30:05.145Z,100.00
2023-04-04T16:32:34.415Z,100.00
2023-04-04T16:35:02.105Z,100.00
2023-04-04T16:37:30.861Z,100.00
2023-04-04T16:40:07.354Z,100.00
2023-04-04T16:42:36.679Z,100.00
2023-04-04T16:45:08.603Z,100.00
2023-04-04T16:47:38.317Z,100.00
2023-04-04T16:50:07.970Z,100.00
2023-04-04T16:52:37.299Z,100.00
2023-04-04T16:55:06.172Z,100.00
2023-04-04T16:57:35.158Z,100.00
2023-04-04T17:00:06.272Z,100.00
2023-04-04T17:02:33.796Z,100.00
2023-04-04T17:05:04.007Z,100.00
2023-04-04T17:07:33.354Z,100.00
2023-04-04T17:10:13.842Z,100.00
2023-04-04T17:12:42.532Z,100.00
2023-04-04T17:15:14.103Z,100.00
2023-04-04T17:17:44.754Z,100.00
2023-04-04T17:20:18.420Z,100.00
2023-04-04T17:22:49.493Z,100.00
2023-04-04T17:25:19.068Z,100.00
2023-04-04T17:27:48.160Z,100.00
2023-04-04T17:30:17.733Z,100.00
2023-04-04T17:32:48.392Z,100.00
2023-04-04T17:35:19.916Z,100.00
2023-04-04T17:37:48.052Z,100.00
2023-04-04T17:40:17.088Z,100.00
2023-04-04T17:42:45.673Z,100.00
2023-04-04T17:45:14.498Z,100.00
2023-04-04T17:47:45.608Z,100.00
2023-04-04T17:50:36.484Z,100.00
2023-04-04T17:53:05.990Z,100.00
2023-04-04T17:55:37.458Z,100.00
2023-04-04T17:58:06.881Z,100.00
2023-04-04T18:00:36.103Z,100.00
2023-04-04T18:03:04.785Z,100.00
2023-04-04T18:05:56.629Z,100.00
2023-04-04T18:08:26.381Z,100.00
2023-04-04T18:10:59.864Z,100.00
2023-04-04T18:13:29.386Z,100.00
2023-04-04T18:16:00.886Z,100.00
2023-04-04T18:18:34.316Z,100.00
2023-04-04T18:21:04.945Z,100.00
2023-04-04T18:23:34.543Z,100.00
2023-04-04T18:26:08.347Z,100.00
2023-04-04T18:28:36.657Z,100.00
2023-04-04T18:31:06.128Z,100.00
2023-04-04T18:33:35.736Z,100.00
2023-04-04T18:36:05.876Z,100.00
2023-04-04T18:38:34.580Z,99.46
2023-04-04T18:41:10.752Z,98.46
2023-04-04T18:43:39.752Z,99.69
2023-04-04T18:46:17.105Z,99.53
2023-04-04T18:48:49.041Z,98.99
2023-04-04T18:51:18.307Z,98.07
2023-04-04T18:53:48.473Z,98.34
2023-04-04T18:56:17.639Z,98.58
2023-04-04T18:58:49.560Z,97.88
2023-04-04T19:01:20.530Z,97.01
2023-04-04T19:03:52.704Z,97.45
2023-04-04T19:06:23.591Z,95.98
2023-04-04T19:08:53.592Z,96.80
2023-04-04T19:11:22.231Z,96.75
2023-04-04T19:13:50.850Z,96.90
2023-04-04T19:16:20.277Z,96.50
2023-04-04T19:18:50.004Z,95.80
2023-04-04T19:21:19.992Z,95.82
2023-04-04T19:23:48.702Z,94.40
2023-04-04T19:26:18.500Z,94.53
2023-04-04T19:28:47.160Z,94.14
2023-04-04T19:31:30.525Z,94.77
2023-04-04T19:33:59.317Z,92.47
2023-04-04T19:36:28.645Z,91.07
2023-04-04T19:38:58.474Z,91.10
2023-04-04T19:41:38.730Z,91.31
2023-04-04T19:44:26.229Z,92.00
2023-04-04T19:46:54.709Z,92.67
2023-04-04T19:49:30.963Z,94.56
2023-04-04T19:52:02.658Z,91.66
2023-04-04T19:54:43.489Z,92.39
2023-04-04T19:57:22.408Z,93.23
2023-04-04T20:00:14.307Z,93.03
2023-04-04T20:02:54.593Z,92.67
2023-04-04T20:05:32.859Z,91.45
2023-04-04T20:08:02.285Z,91.70
2023-04-04T20:10:42.805Z,92.10
2023-04-04T20:13:11.634Z,93.19
2023-04-04T20:15:46.449Z,92.26
2023-04-04T20:18:32.734Z,92.50
2023-04-04T20:21:27.967Z,93.83
2023-04-04T20:23:59.333Z,92.60
2023-04-04T20:26:41.433Z,91.35
2023-04-04T20:29:15.677Z,91.71
2023-04-04T20:31:47.831Z,90.88
2023-04-04T20:34:46.588Z,90.38
2023-04-04T20:37:26.986Z,89.84
2023-04-04T20:40:03.925Z,90.95
2023-04-04T20:42:32.288Z,90.81
2023-04-04T20:45:27.507Z,90.21
2023-04-04T20:48:07.297Z,88.93
2023-04-04T20:50:35.721Z,89.14
2023-04-04T20:53:07.284Z,90.57
2023-04-04T20:55:36.920Z,89.85
2023-04-04T20:58:31.479Z,90.94
2023-04-04T21:01:02.043Z,89.28
2023-04-04T21:03:36.782Z,89.39
2023-04-04T21:06:14.839Z,89.30
2023-04-04T21:08:49.671Z,88.23
2023-04-04T21:11:31.005Z,88.75
2023-04-04T21:13:58.850Z,89.01
2023-04-04T21:16:28.732Z,88.80
2023-04-04T21:19:02.078Z,87.60
2023-04-04T21:21:33.019Z,89.31
2023-04-04T21:24:01.995Z,89.32
2023-04-04T21:26:38.761Z,88.56
2023-04-04T21:29:24.752Z,89.14
2023-04-04T21:31:56.122Z,88.58
2023-04-04T21:34:28.992Z,88.82
2023-04-04T21:37:02.184Z,88.23
2023-04-04T21:39:31.589Z,88.87
2023-04-04T21:42:07.941Z,88.69
2023-04-04T21:44:36.886Z,88.03
2023-04-04T21:47:04.856Z,88.53
2023-04-04T21:49:32.386Z,90.00
2023-04-04T21:52:00.234Z,87.53
2023-04-04T21:54:27.895Z,88.76
2023-04-04T21:56:55.291Z,88.46
2023-04-04T21:59:22.713Z,90.08
2023-04-04T22:01:51.318Z,89.88
2023-04-04T22:04:19.007Z,87.29
2023-04-04T22:06:46.680Z,89.92
2023-04-04T22:09:15.991Z,86.98
2023-04-04T22:11:44.486Z,87.16
2023-04-04T22:14:17.480Z,86.63
2023-04-04T22:16:45.833Z,86.20
2023-04-04T22:19:13.492Z,88.55
2023-04-04T22:21:48.237Z,86.75
2023-04-04T22:24:18.279Z,87.27
2023-04-04T22:26:50.455Z,87.88
2023-04-04T22:29:18.021Z,86.70
2023-04-04T22:31:45.758Z,86.43
2023-04-04T22:34:15.006Z,87.08
2023-04-04T22:36:43.953Z,85.24
2023-04-04T22:39:12.088Z,86.13
2023-04-04T22:41:39.619Z,87.60
2023-04-04T22:44:07.040Z,87.59
2023-04-04T22:46:35.462Z,86.94
2023-04-04T22:49:06.943Z,85.86
2023-04-04T22:51:44.756Z,86.52
2023-04-04T22:54:17.173Z,87.35
2023-04-04T22:56:45.063Z,87.13
2023-04-04T22:59:13.177Z,87.87
2023-04-04T23:01:43.725Z,86.45
2023-04-04T23:04:11.601Z,85.89
2023-04-04T23:06:39.130Z,85.78
2023-04-04T23:09:08.049Z,86.16
2023-04-04T23:11:36.048Z,85.87
2023-04-04T23:14:08.848Z,86.79
2023-04-04T23:16:37.367Z,87.97
2023-04-04T23:19:05.012Z,86.83
2023-04-04T23:21:32.939Z,85.60
2023-04-04T23:24:00.515Z,84.84
2023-04-04T23:26:27.974Z,84.83
2023-04-04T23:28:57.153Z,85.01
2023-04-04T23:31:25.997Z,84.56
2023-04-04T23:33:53.871Z,84.72
2023-04-04T23:36:21.621Z,84.82
2023-04-04T23:38:49.121Z,87.62
2023-04-04T23:41:18.238Z,87.92
2023-04-04T23:43:46.045Z,86.02
2023-04-04T23:46:14.434Z,86.04
2023-04-04T23:48:42.244Z,87.14
2023-04-04T23:51:11.102Z,87.21
2023-04-04T23:53:39.245Z,87.27
2023-04-04T23:56:07.140Z,86.46
2023-04-04T23:58:34.929Z,87.74
